Terminal Aerodrome Forecast
Issued by NWS

Home | Current Version | Previous Version | Text Only | Print | Product List | Glossary On
Versions: 1 2 3 4 5 6 7 8 9 10 11 12 13 14 15 16 17 18 19 20 21 22 23 24 25
000
FTUS41 KOKX 041412 AAA
TAFTEB
TAF AMD
KTEB 041412Z 0414/0512 21004KT P6SM FEW100
     FM041700 21014G21KT P6SM FEW080 SCT250
     FM050100 21013KT P6SM FEW070 SCT250
     FM050400 21009KT P6SM FEW070 SCT250
     FM050900 24005KT P6SM SCT070 SCT150 BKN250=

USA.gov is the U.S. government's official web portal to all federal, state and local government web resources and services.